»·PEaware :: N20957 F70-KAPV

N20957 :: F70-KAPV

FLIGHT INFORMATION

Flight Status: Arrived
Operator: Privately registered:
United States
More flights under this callsign
Pilot: Charles P. (32095)
Aircraft: CESSNA 172 SKYHAWK
(C172)
More flights by this aircraft type
Origin: F70 French Valley
United States
Destination: KAPV Apple Valley
United States
More flights between these airports :: More routes between these airports
Route: VFR- DIRECT
File this flight plan on PilotEdge
Remarks: N / A
Altitude:
(Current/Filed)
8,500ft
Speed:
(Current/Filed)
124kts
Departed: 31-Oct-20 03:29 PM
Arrived: 31-Oct-20 04:09 PM
Distance/Time
Traveled:
6740nm/0:40
Distance/Time
To Go:
Arrived

Flight Plot

Page will automatically refresh every two minutes.

Flight plan parsing failed; only flown route is shown


Map Options




Map Legend


Flown Route
Filed Route
Departure Airport
Arrival Airport
Navaid (VOR, NDB)
Fix

Horizontal Profiles

Position Reports

Time Latitude Longitude Heading Altitude Ground
Speed
31-Oct-20 14:44 33.580497 -117.128176 282 1350ft 0kts
31-Oct-20 14:45 33.580497 -117.128176 282 1350ft 0kts
31-Oct-20 14:46 33.580497 -117.128176 282 1350ft 0kts
31-Oct-20 14:47 33.580497 -117.128176 282 1350ft 0kts
31-Oct-20 14:48 33.580497 -117.128176 282 1350ft 0kts
31-Oct-20 14:49 33.580497 -117.128176 282 1350ft 0kts
31-Oct-20 14:50 33.580497 -117.128176 282 1350ft 0kts
31-Oct-20 14:51 33.580497 -117.128176 282 1350ft 0kts
31-Oct-20 14:52 33.580497 -117.128176 282 1350ft 0kts
31-Oct-20 14:53 33.580497 -117.128176 282 1350ft 0kts
31-Oct-20 14:54 33.580497 -117.128176 282 1350ft 0kts
31-Oct-20 14:55 33.580497 -117.128176 282 1350ft 0kts
31-Oct-20 14:56 33.580497 -117.128176 282 1350ft 0kts
31-Oct-20 14:57 33.580497 -117.128176 282 1350ft 0kts
31-Oct-20 14:58 33.580497 -117.128176 282 1350ft 0kts
31-Oct-20 14:59 33.580497 -117.128176 282 1350ft 0kts
31-Oct-20 15:00 33.580497 -117.128176 282 1350ft 0kts
31-Oct-20 15:01 33.580497 -117.128176 282 1350ft 0kts
31-Oct-20 15:02 33.580497 -117.128176 282 1350ft 0kts
31-Oct-20 15:03 33.580497 -117.128176 282 1350ft 0kts
31-Oct-20 15:04 33.580497 -117.128176 282 1350ft 0kts
31-Oct-20 15:05 33.580497 -117.128176 282 1350ft 0kts
31-Oct-20 15:06 33.580497 -117.128176 282 1350ft 0kts
31-Oct-20 15:07 33.580497 -117.128176 282 1350ft 0kts
31-Oct-20 15:08 33.580497 -117.128176 282 1350ft 0kts
31-Oct-20 15:09 33.580497 -117.128176 282 1350ft 0kts
31-Oct-20 15:10 33.580497 -117.128176 282 1350ft 0kts
31-Oct-20 15:11 33.580497 -117.128176 282 1350ft 0kts
31-Oct-20 15:12 33.580497 -117.128176 282 1350ft 0kts
31-Oct-20 15:13 33.580497 -117.128176 282 1350ft 0kts
31-Oct-20 15:14 33.580497 -117.128176 282 1350ft 0kts
31-Oct-20 15:15 33.580497 -117.128176 282 1350ft 0kts
31-Oct-20 15:16 33.580497 -117.128176 282 1350ft 0kts
31-Oct-20 15:17 33.580497 -117.128176 282 1350ft 0kts
31-Oct-20 15:18 33.580497 -117.128176 282 1350ft 0kts
31-Oct-20 15:19 33.580497 -117.128176 282 1350ft 0kts
31-Oct-20 15:20 33.580497 -117.128176 282 1350ft 0kts
31-Oct-20 15:21 33.580497 -117.128176 282 1350ft 0kts
31-Oct-20 15:22 33.580275 -117.127930 100 1349ft 7kts
31-Oct-20 15:23 33.582286 -117.126954 99 1355ft 4kts
31-Oct-20 15:24 33.582276 -117.126894 106 1355ft 0kts
31-Oct-20 15:25 33.582276 -117.126894 106 1355ft 0kts
31-Oct-20 15:26 33.582276 -117.126894 106 1355ft 0kts
31-Oct-20 15:27 33.581605 -117.126541 191 1354ft 15kts
31-Oct-20 15:28 33.563000 -117.131421 187 1806ft 78kts
31-Oct-20 15:29 33.560800 -117.124375 35 2453ft 72kts
31-Oct-20 15:30 33.576906 -117.112967 23 3096ft 67kts
31-Oct-20 15:31 33.593871 -117.102754 30 3749ft 68kts
31-Oct-20 15:32 33.610817 -117.092929 21 4372ft 67kts
31-Oct-20 15:33 33.628644 -117.086467 12 4961ft 66kts
31-Oct-20 15:34 33.647069 -117.083523 4 5497ft 67kts
31-Oct-20 15:35 33.665796 -117.084158 356 6009ft 67kts
31-Oct-20 15:36 33.689548 -117.088360 352 6365ft 92kts
31-Oct-20 15:37 33.714401 -117.094243 349 6924ft 88kts
31-Oct-20 15:38 33.736994 -117.101505 345 7493ft 78kts
31-Oct-20 15:39 33.756485 -117.110616 338 7904ft 87kts
31-Oct-20 15:40 33.776425 -117.122498 332 8471ft 72kts
31-Oct-20 15:41 33.797611 -117.138655 329 8506ft 116kts
31-Oct-20 15:43 33.830102 -117.143042 359 8390ft 121kts
31-Oct-20 15:44 33.862004 -117.144966 359 8579ft 115kts
31-Oct-20 15:45 33.894652 -117.146880 359 8591ft 118kts
31-Oct-20 15:46 33.927806 -117.148797 359 8591ft 119kts
31-Oct-20 15:47 33.960757 -117.150700 358 8592ft 118kts
31-Oct-20 15:48 33.993726 -117.152606 358 8598ft 118kts
31-Oct-20 15:49 34.026667 -117.154508 358 8598ft 118kts
31-Oct-20 15:50 34.059644 -117.156417 358 8597ft 118kts
31-Oct-20 15:51 34.092573 -117.158324 358 8597ft 118kts
31-Oct-20 15:52 34.125279 -117.160220 358 8598ft 117kts
31-Oct-20 15:53 34.157737 -117.162103 358 8603ft 116kts
31-Oct-20 15:54 34.190343 -117.163992 358 8597ft 117kts
31-Oct-20 15:55 34.222689 -117.165869 358 8603ft 116kts
31-Oct-20 15:56 34.255210 -117.167760 358 8610ft 118kts
31-Oct-20 15:57 34.288018 -117.169670 358 8609ft 118kts
31-Oct-20 15:58 34.321063 -117.171594 357 8601ft 118kts
31-Oct-20 15:59 34.353814 -117.173502 357 8594ft 116kts
31-Oct-20 16:00 34.386273 -117.175394 357 8607ft 117kts
31-Oct-20 16:00 34.414036 -117.177010 357 8371ft 132kts
31-Oct-20 16:02 34.455162 -117.179417 356 7176ft 117kts
31-Oct-20 16:02 34.482304 -117.181002 356 6342ft 117kts
31-Oct-20 16:04 34.518706 -117.174385 17 5355ft 111kts
31-Oct-20 16:04 34.543625 -117.166821 4 4763ft 108kts
31-Oct-20 16:06 34.577083 -117.167869 0 4030ft 96kts
31-Oct-20 16:06 34.597865 -117.167404 346 3670ft 87kts
31-Oct-20 16:07 34.589539 -117.181871 197 3171ft 73kts
31-Oct-20 16:08 34.579291 -117.186232 241 3016ft 1kts
31-Oct-20 16:09 34.579684 -117.186675 14 3017ft 8kts
31-Oct-20 16:10 34.580590 -117.186714 10 3024ft 0kts
31-Oct-20 16:11 34.580590 -117.186714 10 3024ft 0kts
31-Oct-20 16:12 34.580590 -117.186714 10 3024ft 0kts
31-Oct-20 16:13 0.000408 0.013975 359 3ft 0kts

Navigation Log

Ident Type
Flight plan parsing failed, navigation log unavailable